KSPG/SPG METAR and TAF weather

Enter ICAO airport designator
Station Type Date Time Source
KSPG METAR 2019/10/23 20:53 UTC NOAA

KSPG 232053Z 06011KT 10SM CLR 28/19 A3001 RMK AO2 SLP161 T02780189 56008


Station Type Date Time Source
KSPG Decoded METAR 2019/10/23 20:53 UTC NOAA

ST PETERSBURG WHITTED AIRPORT , FL, United States (KSPG) 27-46N 082-38W 2M
Oct 23, 2019 - 04:53 PM EDT / 2019.10.23 2053 UTC
Wind: from the ENE (060 degrees) at 13 MPH (11 KT):0
Visibility: 10 mile(s):0
Sky conditions: clear
Temperature: 82.0 F (27.8 C)
Dew Point: 66.0 F (18.9 C)
Relative Humidity: 58%
Pressure (altimeter): 30.01 in. Hg (1016 hPa)
Pressure tendency: 0.02 inches (0.8 hPa) lower than three hours ago
ob: KSPG 232053Z 06011KT 10SM CLR 28/19 A3001 RMK AO2 SLP161 T02780189 56008
cycle: 21

Station Type Date Time Source
KSPG TAF UTC NOAA

Error!

Example: see airport list